Terminal Aerodrome Forecast
Issued by NWS

Home | Current Version | Previous Version | Text Only | Print | Product List | Glossary On
Versions: 1 2 3 4 5 6 7 8 9 10 11 12 13 14 15 16 17 18
000
FTUS46 KSEW 012300 RRA
TAFBFI
TAF
KBFI 012351Z 0200/0224 21007KT P6SM BKN050
     FM020200 31005KT P6SM BKN050
     FM020800 VRB03KT P6SM OVC030
     FM021200 VRB04KT P6SM OVC015
     FM021800 19008KT P6SM OVC030
     FM022000 18008KT P6SM VCSH OVC030
     FM022300 18007KT P6SM -SHRA OVC030=

USA.gov is the U.S. government's official web portal to all federal, state and local government web resources and services.